Time;durP1;ratioP1;P1;durP2;ratioP2;P2;SDS_P1;SDS_P2;PMS_P1;PMS_P2;Temp;Humidity;BMP_temperature;BMP_pressure;BME280_temperature;BME280_humidity;BME280_pressure;Samples;Min_cycle;Max_cycle;Signal;HPM_P1;HPM_P2
2023/11/13 00:01:05;;;;;;;14.85;6.72;;;4.80;99.90;;;;;;5081146;28;20046;-73
2023/11/13 00:03:31;;;;;;;11.38;5.88;;;5.30;99.90;;;;;;5081087;28;20013;-74
2023/11/13 00:05:57;;;;;;;13.38;7.00;;;;;;;;;;5080819;28;20036;-74
2023/11/13 00:08:23;;;;;;;13.27;6.25;;;5.00;95.30;;;;;;5081256;28;20029;-73
2023/11/13 00:10:48;;;;;;;13.20;6.05;;;4.80;99.90;;;;;;5079551;28;20338;-73
2023/11/13 00:13:14;;;;;;;11.63;6.55;;;;;;;;;;5081331;28;20039;-73
2023/11/13 00:15:40;;;;;;;12.07;6.05;;;4.90;99.90;;;;;;5081218;28;20029;-71
2023/11/13 00:18:06;;;;;;;10.50;5.57;;;4.80;99.90;;;;;;5080914;28;20038;-72
2023/11/13 00:20:32;;;;;;;12.93;6.75;;;;;;;;;;5081022;28;20047;-71
2023/11/13 00:22:58;;;;;;;9.48;5.32;;;;;;;;;;5080056;28;20033;-72
2023/11/13 00:25:23;;;;;;;9.90;5.55;;;5.10;99.90;;;;;;5081096;28;20048;-72
2023/11/13 00:27:49;;;;;;;8.95;5.28;;;;;;;;;;5081314;28;20043;-73
2023/11/13 00:30:16;;;;;;;11.05;5.43;;;5.20;99.30;;;;;;5081201;28;20032;-71
2023/11/13 00:32:42;;;;;;;7.35;4.05;;;;;;;;;;5081146;28;20024;-71
2023/11/13 00:35:08;;;;;;;7.65;5.20;;;;;;;;;;5080876;28;20115;-72
2023/11/13 00:37:34;;;;;;;5.97;3.97;;;5.30;99.80;;;;;;5080705;28;20039;-71
2023/11/13 00:40:00;;;;;;;8.23;5.22;;;;;;;;;;5082219;28;20028;-73
2023/11/13 00:42:25;;;;;;;5.82;3.80;;;5.90;98.80;;;;;;5082681;28;20341;-73
2023/11/13 00:44:51;;;;;;;6.15;4.25;;;;;;;;;;5082322;28;20040;-72
2023/11/13 00:47:17;;;;;;;6.57;3.97;;;;;;;;;;5082474;28;20224;-79
2023/11/13 00:49:45;;;;;;;9.60;3.60;;;6.60;97.50;;;;;;5082864;28;20016;-71
2023/11/13 00:52:10;;;;;;;5.43;3.13;;;6.50;94.60;;;;;;5081720;28;20028;-76
2023/11/13 00:54:36;;;;;;;4.68;3.38;;;6.40;96.00;;;;;;5083198;28;20080;-72
2023/11/13 00:57:02;;;;;;;7.43;3.38;;;;;;;;;;5080009;28;20040;-71
2023/11/13 00:59:28;;;;;;;6.28;3.60;;;6.60;96.30;;;;;;5080875;28;20039;-71
2023/11/13 01:01:53;;;;;;;5.82;3.72;;;6.50;96.10;;;;;;5080649;28;20044;-71
2023/11/13 01:04:19;;;;;;;6.55;3.38;;;6.50;90.80;;;;;;5079462;28;20397;-71
2023/11/13 01:06:47;;;;;;;5.15;2.65;;;6.50;95.40;;;;;;5080958;28;20630;-70
2023/11/13 01:09:13;;;;;;;4.28;2.90;;;;;;;;;;5080464;28;20095;-70
2023/11/13 01:11:38;;;;;;;8.77;2.80;;;6.60;94.90;;;;;;5080777;28;20027;-73
2023/11/13 01:14:04;;;;;;;5.88;2.53;;;6.60;94.90;;;;;;5080755;28;20016;-70
2023/11/13 01:16:30;;;;;;;3.58;2.70;;;;;;;;;;5079689;28;20088;-71
2023/11/13 01:18:57;;;;;;;5.05;2.90;;;;;;;;;;5080611;28;20216;-70
2023/11/13 01:21:23;;;;;;;9.80;3.58;;;;;;;;;;5080550;28;20263;-70
2023/11/13 01:23:48;;;;;;;6.32;3.45;;;6.70;94.10;;;;;;5080615;28;20016;-70
2023/11/13 01:26:14;;;;;;;4.72;2.60;;;6.70;92.50;;;;;;5080488;28;20071;-71
2023/11/13 01:28:40;;;;;;;3.60;2.33;;;7.10;86.40;;;;;;5080466;28;20021;-72
2023/11/13 01:31:07;;;;;;;4.95;2.67;;;6.90;93.50;;;;;;5080706;28;20052;-71
2023/11/13 01:33:32;;;;;;;4.63;2.83;;;6.80;83.90;;;;;;5080292;28;20020;-71
2023/11/13 01:35:59;;;;;;;6.88;2.53;;;7.10;93.60;;;;;;5080601;28;20059;-71
2023/11/13 01:38:25;;;;;;;4.35;2.70;;;;;;;;;;5080331;28;20035;-73
2023/11/13 01:40:51;;;;;;;5.45;2.85;;;7.00;92.90;;;;;;5080517;28;20066;-71
2023/11/13 01:43:23;;;;;;;4.47;3.00;;;7.20;92.80;;;;;;5079359;28;20036;-71
2023/11/13 01:45:54;;;;;;;4.28;3.25;;;7.10;92.40;;;;;;5080349;28;20032;-71
2023/11/13 01:48:21;;;;;;;7.30;3.33;;;7.20;80.90;;;;;;5080181;28;20083;-71
2023/11/13 01:50:48;;;;;;;5.82;3.58;;;7.20;79.50;;;;;;5080340;28;20087;-72
2023/11/13 01:53:18;;;;;;;6.50;3.95;;;7.20;91.60;;;;;;5080189;28;20244;-72
2023/11/13 01:55:45;;;;;;;5.40;3.65;;;7.30;91.40;;;;;;5080432;28;20087;-72
2023/11/13 01:58:13;;;;;;;6.05;4.03;;;7.00;91.10;;;;;;5080473;28;20336;-73
2023/11/13 02:00:39;;;;;;;7.25;4.15;;;7.30;91.00;;;;;;5080387;28;20020;-71
2023/11/13 02:03:06;;;;;;;6.93;3.97;;;7.20;91.10;;;;;;5081369;28;20013;-70
2023/11/13 02:05:32;;;;;;;7.70;4.50;;;;;;;;;;5083640;28;20040;-70
2023/11/13 02:07:58;;;;;;;5.93;4.22;;;7.40;90.70;;;;;;5083631;28;20123;-71
2023/11/13 02:10:26;;;;;;;7.35;4.47;;;7.30;76.80;;;;;;5082229;28;20323;-70
2023/11/13 02:12:53;;;;;;;8.43;4.70;;;;;;;;;;5083734;28;20043;-70
2023/11/13 02:15:19;;;;;;;7.90;4.60;;;7.20;90.90;;;;;;5083495;28;20019;-72
2023/11/13 02:18:02;;;;;;;6.55;2.95;;;7.20;91.70;;;;;;5083600;28;20031;-72
2023/11/13 02:20:31;;;;;;;6.38;3.53;;;7.00;80.40;;;;;;5083507;28;20070;-72
2023/11/13 02:22:57;;;;;;;7.28;4.65;;;;;;;;;;5083394;28;20380;-72
2023/11/13 02:25:24;;;;;;;10.80;4.65;;;6.50;93.00;;;;;;5082014;28;20048;-73
2023/11/13 02:28:00;;;;;;;6.53;4.00;;;6.50;83.20;;;;;;5083678;28;20012;-72
2023/11/13 02:30:26;;;;;;;8.18;4.43;;;6.30;93.80;;;;;;5083578;28;20286;-72
2023/11/13 02:32:52;;;;;;;8.10;4.65;;;;;;;;;;5083218;28;20029;-72
2023/11/13 02:35:18;;;;;;;7.18;4.72;;;6.30;88.50;;;;;;5083360;28;20066;-72
2023/11/13 02:37:44;;;;;;;8.30;4.97;;;6.20;95.00;;;;;;5082409;28;20047;-72
2023/11/13 02:40:11;;;;;;;7.72;3.90;;;6.20;95.50;;;;;;5085950;28;20067;-73
2023/11/13 02:42:38;;;;;;;5.97;3.90;;;5.90;95.80;;;;;;5086118;28;20012;-75
2023/11/13 02:45:05;;;;;;;8.05;4.50;;;6.20;95.80;;;;;;5086238;28;20016;-73
2023/11/13 02:47:31;;;;;;;11.15;5.07;;;5.90;95.90;;;;;;5085793;28;20367;-72
2023/11/13 02:49:58;;;;;;;8.10;4.75;;;6.00;96.20;;;;;;5084406;28;20017;-85
2023/11/13 02:52:23;;;;;;;6.93;4.45;;;5.70;90.80;;;;;;5084894;28;20371;-75
2023/11/13 02:54:51;;;;;;;6.47;4.78;;;6.00;96.60;;;;;;5083375;28;20021;-72
2023/11/13 02:57:18;;;;;;;8.57;4.97;;;;;;;;;;5082671;28;20025;-72
2023/11/13 02:59:44;;;;;;;8.38;4.65;;;5.60;90.40;;;;;;5082594;28;20024;-74
2023/11/13 03:02:09;;;;;;;7.10;4.57;;;5.70;96.90;;;;;;5082398;28;20078;-72
2023/11/13 03:04:35;;;;;;;6.72;4.68;;;5.80;97.00;;;;;;5082711;28;20024;-72
2023/11/13 03:07:01;;;;;;;8.57;5.40;;;5.70;97.00;;;;;;5082570;28;20312;-72
2023/11/13 03:09:27;;;;;;;9.15;4.65;;;;;;;;;;5081217;28;20028;-73
2023/11/13 03:11:53;;;;;;;7.57;4.78;;;5.60;96.60;;;;;;5082185;28;20028;-73
2023/11/13 03:14:19;;;;;;;9.20;6.00;;;;;;;;;;5082303;28;20036;-72
2023/11/13 03:16:45;;;;;;;11.13;7.07;;;5.90;97.40;;;;;;5082092;28;20304;-72
2023/11/13 03:19:11;;;;;;;9.60;6.22;;;5.70;95.20;;;;;;5082286;28;20016;-73
2023/11/13 03:21:36;;;;;;;10.80;6.05;;;5.80;96.70;;;;;;5082315;28;20078;-74
2023/11/13 03:24:03;;;;;;;11.93;6.85;;;;;;;;;;5082081;28;20335;-73
2023/11/13 03:26:29;;;;;;;14.10;6.85;;;5.70;96.30;;;;;;5082542;28;20040;-75
2023/11/13 03:28:56;;;;;;;10.13;6.28;;;5.80;97.70;;;;;;5082221;28;20020;-71
2023/11/13 03:31:22;;;;;;;9.40;6.07;;;;;;;;;;5081928;28;20016;-72
2023/11/13 03:33:48;;;;;;;10.80;6.53;;;;;;;;;;5082090;28;20031;-72
2023/11/13 03:36:14;;;;;;;15.90;8.48;;;;;;;;;;5082134;28;20054;-76
2023/11/13 03:38:40;;;;;;;18.23;9.02;;;5.50;93.60;;;;;;5081917;28;20024;-72
2023/11/13 03:41:06;;;;;;;11.85;7.35;;;5.90;98.00;;;;;;5081688;28;20044;-73
2023/11/13 03:43:32;;;;;;;18.13;8.35;;;6.20;98.20;;;;;;5081986;28;20055;-72
2023/11/13 03:45:58;;;;;;;16.27;8.13;;;;;;;;;;5081529;28;20107;-71
2023/11/13 03:48:24;;;;;;;16.65;8.55;;;;;;;;;;5081777;28;20031;-70
2023/11/13 03:50:50;;;;;;;15.07;8.48;;;5.60;97.70;;;;;;5081708;28;20028;-74
2023/11/13 03:53:16;;;;;;;16.48;8.75;;;5.50;97.90;;;;;;5081500;28;20063;-71
2023/11/13 03:55:41;;;;;;;14.05;7.40;;;5.50;97.70;;;;;;5081782;28;20017;-71
2023/11/13 03:58:08;;;;;;;14.10;9.57;;;5.70;93.50;;;;;;5081748;28;20058;-73
2023/11/13 04:00:34;;;;;;;14.88;9.60;;;6.00;97.80;;;;;;5081680;28;20470;-73
2023/11/13 04:03:00;;;;;;;14.82;8.40;;;5.70;92.10;;;;;;5081361;28;20319;-70
2023/11/13 04:05:26;;;;;;;15.23;8.98;;;5.70;97.80;;;;;;5081382;28;20033;-74
2023/11/13 04:07:52;;;;;;;15.70;8.57;;;5.50;98.00;;;;;;5081351;28;20086;-72
2023/11/13 04:10:18;;;;;;;15.88;8.95;;;5.80;96.80;;;;;;5081079;28;20032;-71
2023/11/13 04:12:44;;;;;;;18.85;9.23;;;5.60;98.10;;;;;;5081175;28;20027;-70
2023/11/13 04:15:10;;;;;;;14.48;8.65;;;5.80;97.90;;;;;;5079143;28;20020;-71
2023/11/13 04:17:36;;;;;;;16.45;8.30;;;5.60;97.90;;;;;;5081095;28;20312;-71
2023/11/13 04:20:06;;;;;;;17.52;8.48;;;5.80;91.10;;;;;;5080896;28;20048;-70
2023/11/13 04:22:32;;;;;;;18.20;9.23;;;5.80;91.00;;;;;;5081124;28;20021;-70
2023/11/13 04:24:59;;;;;;;16.02;9.45;;;5.90;97.70;;;;;;5080732;28;20348;-70
2023/11/13 04:27:26;;;;;;;15.40;9.15;;;;;;;;;;5080446;28;20087;-71
2023/11/13 04:29:52;;;;;;;16.00;9.18;;;5.60;97.60;;;;;;5076222;28;20017;-73
2023/11/13 04:32:19;;;;;;;18.17;9.10;;;5.70;94.10;;;;;;5060751;28;20253;-72
2023/11/13 04:34:46;;;;;;;17.08;9.38;;;5.60;97.70;;;;;;5060700;28;20079;-71
2023/11/13 04:37:11;;;;;;;17.45;10.15;;;6.00;97.90;;;;;;5060710;28;20048;-70
2023/11/13 04:39:37;;;;;;;15.88;9.75;;;5.70;97.70;;;;;;5060553;28;20036;-70
2023/11/13 04:42:03;;;;;;;16.63;9.48;;;5.70;90.90;;;;;;5060894;28;20029;-70
2023/11/13 04:44:29;;;;;;;19.10;10.32;;;;;;;;;;5060886;28;20048;-71
2023/11/13 04:46:54;;;;;;;17.77;10.30;;;5.40;97.60;;;;;;5059571;28;20332;-70
2023/11/13 04:49:20;;;;;;;16.65;10.05;;;5.60;97.70;;;;;;5060945;28;20084;-70
2023/11/13 04:51:46;;;;;;;19.50;11.45;;;;;;;;;;5074696;28;20104;-73
2023/11/13 04:54:12;;;;;;;17.40;10.93;;;;;;;;;;5080539;28;20024;-70
2023/11/13 04:56:38;;;;;;;18.58;11.27;;;5.50;97.60;;;;;;5080618;28;20158;-70
2023/11/13 04:59:04;;;;;;;15.60;10.38;;;5.50;96.20;;;;;;5080381;28;20029;-71
2023/11/13 05:01:31;;;;;;;19.65;10.90;;;;;;;;;;5080470;28;20029;-72
2023/11/13 05:03:57;;;;;;;22.45;11.25;;;5.80;97.50;;;;;;5079297;28;20128;-71
2023/11/13 05:06:23;;;;;;;20.42;11.68;;;;;;;;;;5079321;28;20054;-71
2023/11/13 05:08:48;;;;;;;23.13;12.52;;;5.50;97.40;;;;;;5080438;28;20062;-71
2023/11/13 05:11:25;;;;;;;21.55;12.15;;;5.40;91.50;;;;;;5067914;28;20025;-74
2023/11/13 05:13:52;;;;;;;25.15;13.35;;;;;;;;;;5060566;28;20371;-74
2023/11/13 05:16:25;;;;;;;22.73;12.35;;;5.50;91.00;;;;;;5060755;28;20024;-75
2023/11/13 05:18:51;;;;;;;26.98;12.27;;;5.40;97.80;;;;;;5060703;28;20439;-72
2023/11/13 05:21:18;;;;;;;19.98;11.75;;;5.60;91.00;;;;;;5060439;28;20043;-71
2023/11/13 05:23:46;;;;;;;20.30;11.10;;;5.60;97.80;;;;;;5060411;28;20035;-72
2023/11/13 05:26:12;;;;;;;17.35;10.77;;;;;;;;;;5060052;28;20067;-72
2023/11/13 05:28:38;;;;;;;19.13;11.55;;;;;;;;;;5060101;28;20064;-72
2023/11/13 05:31:03;;;;;;;21.65;13.05;;;5.70;95.70;;;;;;5058509;28;20021;-74
2023/11/13 05:33:29;;;;;;;19.50;11.55;;;5.60;98.00;;;;;;5059663;28;20035;-71
2023/11/13 05:35:55;;;;;;;19.98;11.82;;;;;;;;;;5059633;28;20021;-71
2023/11/13 05:38:21;;;;;;;21.52;11.35;;;5.70;98.00;;;;;;5061818;28;20197;-73
2023/11/13 05:40:47;;;;;;;16.80;10.80;;;;;;;;;;5064156;28;20028;-71
2023/11/13 05:43:13;;;;;;;19.60;10.85;;;5.70;97.70;;;;;;5064070;28;20020;-74
2023/11/13 05:45:39;;;;;;;18.38;10.95;;;5.70;97.90;;;;;;5063900;28;20358;-73
2023/11/13 05:48:05;;;;;;;17.27;10.80;;;5.80;98.00;;;;;;5064020;28;20072;-72
2023/11/13 05:50:31;;;;;;;24.58;11.60;;;5.80;98.10;;;;;;5063970;28;20025;-71
2023/11/13 05:52:57;;;;;;;17.75;10.70;;;;;;;;;;5062810;28;20033;-71
2023/11/13 05:55:23;;;;;;;22.98;11.35;;;5.70;98.10;;;;;;5063980;28;20362;-71
2023/11/13 05:57:50;;;;;;;20.75;12.35;;;5.90;95.20;;;;;;5062717;28;20051;-71
2023/11/13 06:00:18;;;;;;;17.17;10.80;;;5.60;97.80;;;;;;5064069;28;20020;-71
2023/11/13 06:02:44;;;;;;;19.00;10.73;;;6.10;91.30;;;;;;5063726;28;20025;-71
2023/11/13 06:05:10;;;;;;;17.17;11.27;;;5.40;98.10;;;;;;5062473;28;20035;-71
2023/11/13 06:07:37;;;;;;;19.83;11.55;;;5.50;98.40;;;;;;5063735;28;20025;-71
2023/11/13 06:10:08;;;;;;;18.73;11.38;;;5.40;91.50;;;;;;5063573;28;20074;-71
2023/11/13 06:12:34;;;;;;;19.50;11.35;;;5.40;98.30;;;;;;5063889;28;20099;-71
2023/11/13 06:15:03;;;;;;;22.08;11.75;;;5.30;98.30;;;;;;5063431;28;20024;-71
2023/11/13 06:17:29;;;;;;;21.90;12.35;;;5.40;96.00;;;;;;5063373;28;20044;-71
2023/11/13 06:19:55;;;;;;;24.58;12.68;;;;;;;;;;5063601;28;20021;-72
2023/11/13 06:22:20;;;;;;;22.38;12.57;;;5.40;98.30;;;;;;5063569;28;20024;-72
2023/11/13 06:24:47;;;;;;;27.48;14.98;;;5.70;98.20;;;;;;5063916;28;20045;-71
2023/11/13 06:27:13;;;;;;;25.98;14.40;;;;;;;;;;5062289;28;20094;-71
2023/11/13 06:29:39;;;;;;;32.45;15.73;;;;;;;;;;5063035;28;20269;-71
2023/11/13 06:32:07;;;;;;;24.65;13.02;;;5.90;91.00;;;;;;5063127;28;20020;-71
2023/11/13 06:34:33;;;;;;;21.00;11.80;;;;;;;;;;5061860;28;20066;-71
2023/11/13 06:36:59;;;;;;;22.65;12.57;;;;;;;;;;5062200;28;20039;-71
2023/11/13 06:39:25;;;;;;;24.13;12.15;;;5.60;97.10;;;;;;5062986;28;20020;-71
2023/11/13 06:41:52;;;;;;;21.33;12.27;;;5.90;97.30;;;;;;5062818;28;20016;-71
2023/11/13 06:44:17;;;;;;;22.00;13.18;;;5.60;97.50;;;;;;5062659;28;20040;-75
2023/11/13 06:46:43;;;;;;;21.15;12.00;;;5.70;97.50;;;;;;5062642;28;20045;-71
2023/11/13 06:49:09;;;;;;;18.90;12.68;;;;;;;;;;5062756;28;20092;-73
2023/11/13 06:51:35;;;;;;;20.70;12.13;;;;;;;;;;5062864;28;20017;-71
2023/11/13 06:54:01;;;;;;;22.92;12.80;;;;;;;;;;5062412;28;20027;-72
2023/11/13 06:56:27;;;;;;;21.65;13.73;;;;;;;;;;5084840;28;20016;-72
2023/11/13 06:58:52;;;;;;;27.75;13.95;;;5.50;93.90;;;;;;5075638;28;20411;-71
2023/11/13 07:01:20;;;;;;;45.63;14.73;;;5.60;91.00;;;;;;5082350;28;20020;-71
2023/11/13 07:03:45;;;;;;;20.50;12.55;;;6.10;97.70;;;;;;5080474;28;20020;-71
2023/11/13 07:06:11;;;;;;;22.45;12.82;;;5.50;97.30;;;;;;5102729;28;20255;-71
2023/11/13 07:08:38;;;;;;;24.50;13.02;;;5.70;97.40;;;;;;5082405;28;20079;-70
2023/11/13 07:11:04;;;;;;;23.20;13.52;;;5.70;97.20;;;;;;5082361;28;20074;-71
2023/11/13 07:13:32;;;;;;;19.27;11.98;;;5.70;94.50;;;;;;5082062;28;20095;-71
2023/11/13 07:15:58;;;;;;;29.98;14.18;;;;;;;;;;5075700;28;20029;-71
2023/11/13 07:18:24;;;;;;;22.38;12.48;;;5.90;96.80;;;;;;5062608;28;20024;-71
2023/11/13 07:20:53;;;;;;;25.30;11.90;;;;;;;;;;5062217;28;20024;-71
2023/11/13 07:23:19;;;;;;;20.63;11.60;;;6.20;91.70;;;;;;5059370;28;20021;-71
2023/11/13 07:25:45;;;;;;;19.30;11.90;;;;;;;;;;5061584;28;20565;-71
2023/11/13 07:28:12;;;;;;;20.77;13.00;;;6.50;96.20;;;;;;5061578;28;20051;-71
2023/11/13 07:30:38;;;;;;;24.45;11.80;;;6.60;92.10;;;;;;5058943;28;20028;-71
2023/11/13 07:33:04;;;;;;;20.30;11.80;;;6.70;95.70;;;;;;5062070;28;20128;-71
2023/11/13 07:35:30;;;;;;;25.73;11.43;;;6.80;92.80;;;;;;5061940;28;20029;-71
2023/11/13 07:37:56;;;;;;;18.27;10.35;;;7.40;95.20;;;;;;5061928;28;20028;-70
2023/11/13 07:40:25;;;;;;;18.10;10.52;;;;;;;;;;5062091;28;20656;-70
2023/11/13 07:42:51;;;;;;;16.92;9.88;;;7.20;94.10;;;;;;5061184;28;20072;-71
2023/11/13 07:45:18;;;;;;;18.00;10.50;;;7.80;94.00;;;;;;5061843;28;20112;-72
2023/11/13 07:47:44;;;;;;;17.08;9.18;;;;;;;;;;5061701;28;20127;-72
2023/11/13 07:50:11;;;;;;;15.25;9.85;;;7.40;83.70;;;;;;5062323;28;20327;-73
2023/11/13 07:52:46;;;;;;;14.88;9.20;;;7.50;83.50;;;;;;5080461;28;20115;-72
2023/11/13 07:55:13;;;;;;;19.27;9.43;;;7.50;82.30;;;;;;5080180;28;20025;-72
2023/11/13 07:57:40;;;;;;;18.50;10.90;;;7.30;84.70;;;;;;5079969;28;20235;-71
2023/11/13 08:00:10;;;;;;;16.52;10.40;;;7.30;92.70;;;;;;5080051;28;20095;-72
2023/11/13 08:02:40;;;;;;;19.40;11.23;;;7.40;81.40;;;;;;5079918;28;20055;-72
2023/11/13 08:05:11;;;;;;;17.95;10.50;;;7.50;81.70;;;;;;5079815;28;20024;-73
2023/11/13 08:07:40;;;;;;;20.80;11.63;;;7.40;88.70;;;;;;5080999;28;20025;-73
2023/11/13 08:10:14;;;;;;;23.35;12.35;;;7.90;92.60;;;;;;5081172;28;20027;-73
2023/11/13 08:12:45;;;;;;;18.65;11.23;;;8.10;92.50;;;;;;5081410;28;20173;-72
2023/11/13 08:15:14;;;;;;;17.70;10.75;;;;;;;;;;5080135;28;20243;-72
2023/11/13 08:17:42;;;;;;;19.27;10.57;;;7.80;91.60;;;;;;5081225;28;20028;-73
2023/11/13 08:20:09;;;;;;;21.02;10.25;;;7.80;82.50;;;;;;5081044;28;20021;-72
2023/11/13 08:22:35;;;;;;;17.08;11.13;;;7.50;91.80;;;;;;5081032;28;20062;-73
2023/11/13 08:25:05;;;;;;;19.70;11.85;;;7.80;80.00;;;;;;5080859;28;20098;-72
2023/11/13 08:27:31;;;;;;;22.65;11.55;;;7.70;81.50;;;;;;5081025;28;20028;-72
2023/11/13 08:29:57;;;;;;;19.45;11.40;;;8.10;80.50;;;;;;5081112;28;20056;-72
2023/11/13 08:32:23;;;;;;;19.10;11.50;;;;;;;;;;5080802;28;20032;-73
2023/11/13 08:34:48;;;;;;;17.88;10.88;;;8.00;90.90;;;;;;5080725;28;20027;-73
2023/11/13 08:37:14;;;;;;;17.25;9.63;;;8.10;91.30;;;;;;5080851;28;20084;-71
2023/11/13 08:39:40;;;;;;;18.38;10.23;;;7.90;91.30;;;;;;5080933;28;20016;-72
2023/11/13 08:42:07;;;;;;;18.20;10.27;;;8.10;79.00;;;;;;5074847;28;20375;-71
2023/11/13 08:44:34;;;;;;;20.00;10.55;;;;;;;;;;5080744;28;20029;-71
2023/11/13 08:47:00;;;;;;;15.45;9.50;;;8.00;91.40;;;;;;5078656;28;20029;-71
2023/11/13 08:49:26;;;;;;;18.60;10.40;;;8.30;91.30;;;;;;5079744;28;20035;-71
2023/11/13 08:51:52;;;;;;;16.00;9.95;;;;;;;;;;5080921;28;20212;-73
2023/11/13 08:54:18;;;;;;;16.88;10.38;;;8.20;87.60;;;;;;5080892;28;20020;-74
2023/11/13 08:56:51;;;;;;;16.83;11.35;;;8.50;90.80;;;;;;5080693;28;20098;-72
2023/11/13 08:59:17;;;;;;;17.80;10.23;;;8.60;77.70;;;;;;5081085;28;20113;-72
2023/11/13 09:01:43;;;;;;;19.13;10.65;;;8.70;90.20;;;;;;5079913;28;20021;-72
2023/11/13 09:04:09;;;;;;;16.30;10.13;;;8.80;90.10;;;;;;5080751;28;20066;-72
2023/11/13 09:06:36;;;;;;;16.20;10.27;;;9.00;89.70;;;;;;5080813;28;20029;-72
2023/11/13 09:09:03;;;;;;;18.17;10.02;;;9.20;75.90;;;;;;5081015;28;20315;-72
2023/11/13 09:11:30;;;;;;;20.67;10.05;;;9.00;87.70;;;;;;5081185;28;20079;-72
2023/11/13 09:13:56;;;;;;;15.70;9.05;;;;;;;;;;5084752;28;20008;-72
2023/11/13 09:16:22;;;;;;;15.15;9.38;;;9.50;87.20;;;;;;5084930;28;20078;-72
2023/11/13 09:18:48;;;;;;;16.90;10.38;;;;;;;;;;5084869;28;20036;-72
2023/11/13 09:21:17;;;;;;;15.93;10.23;;;9.20;86.90;;;;;;5083762;28;20205;-72
2023/11/13 09:23:45;;;;;;;16.58;9.98;;;9.40;82.90;;;;;;5087066;28;20336;-72
2023/11/13 09:26:11;;;;;;;15.32;9.82;;;9.50;86.10;;;;;;5084457;28;20110;-73
2023/11/13 09:28:37;;;;;;;17.77;10.07;;;9.70;85.80;;;;;;5084500;28;20189;-72
2023/11/13 09:31:03;;;;;;;14.65;9.20;;;10.00;76.00;;;;;;5084834;28;20103;-72
2023/11/13 09:33:29;;;;;;;18.77;10.73;;;9.80;72.00;;;;;;5084799;28;20027;-72
2023/11/13 09:35:55;;;;;;;15.27;9.57;;;9.80;85.40;;;;;;5084597;28;20087;-72
2023/11/13 09:38:22;;;;;;;14.82;10.18;;;9.90;85.20;;;;;;5077886;28;20339;-71
2023/11/13 09:40:48;;;;;;;18.38;9.23;;;10.10;84.40;;;;;;5084649;28;20032;-71
2023/11/13 09:43:18;;;;;;;16.70;9.20;;;10.00;83.70;;;;;;5096109;28;20028;-71
2023/11/13 09:45:46;;;;;;;15.88;10.40;;;10.00;83.40;;;;;;5098336;28;20052;-71
2023/11/13 09:48:29;;;;;;;16.00;10.07;;;9.90;83.20;;;;;;5101404;28;20372;-73
2023/11/13 09:50:58;;;;;;;16.70;9.25;;;10.30;83.20;;;;;;5084017;28;20020;-72
2023/11/13 09:53:28;;;;;;;14.60;9.13;;;10.10;82.70;;;;;;5099888;28;20016;-72
2023/11/13 09:55:54;;;;;;;15.77;9.85;;;10.30;82.30;;;;;;5104197;28;20330;-72
2023/11/13 09:58:21;;;;;;;16.58;9.52;;;10.00;83.00;;;;;;5104190;28;20252;-71
2023/11/13 10:00:47;;;;;;;17.50;9.35;;;10.40;82.90;;;;;;5104197;28;20088;-71
2023/11/13 10:03:14;;;;;;;16.00;9.52;;;10.10;73.40;;;;;;5104394;28;20183;-72
2023/11/13 10:05:41;;;;;;;19.08;10.10;;;10.30;81.80;;;;;;5104380;28;20024;-72
2023/11/13 10:08:07;;;;;;;13.75;8.88;;;10.60;81.40;;;;;;5104101;28;20041;-71
2023/11/13 10:10:33;;;;;;;18.30;9.27;;;;;;;;;;5102998;28;20028;-71
2023/11/13 10:13:01;;;;;;;17.05;10.63;;;10.30;77.30;;;;;;5083885;28;20188;-73
2023/11/13 10:15:31;;;;;;;15.90;8.48;;;10.40;80.70;;;;;;5083849;28;20027;-73
2023/11/13 10:18:12;;;;;;;13.00;8.77;;;10.60;80.60;;;;;;5082499;28;20021;-71
2023/11/13 10:20:49;;;;;;;18.83;9.82;;;10.50;67.90;;;;;;5083560;28;20024;-72
2023/11/13 10:23:16;;;;;;;15.75;8.70;;;10.50;78.30;;;;;;5083202;28;20212;-72
2023/11/13 10:25:56;;;;;;;12.48;8.18;;;10.30;81.00;;;;;;5081131;28;20272;-71
2023/11/13 10:28:37;;;;;;;13.20;7.80;;;11.20;81.50;;;;;;5083703;28;20021;-72
2023/11/13 10:31:12;;;;;;;10.02;6.90;;;10.60;76.70;;;;;;5083317;28;20092;-72
2023/11/13 10:33:39;;;;;;;13.55;8.00;;;11.10;79.60;;;;;;5083316;28;20035;-72
2023/11/13 10:36:17;;;;;;;15.77;7.85;;;10.70;71.30;;;;;;5083505;28;20032;-72
2023/11/13 10:38:51;;;;;;;8.93;6.43;;;11.00;66.60;;;;;;5088386;28;20107;-72
2023/11/13 10:41:21;;;;;;;10.20;7.55;;;10.70;78.80;;;;;;5087217;28;20048;-72
2023/11/13 10:43:47;;;;;;;13.10;8.63;;;10.90;79.40;;;;;;5094988;28;20061;-72
2023/11/13 10:46:33;;;;;;;12.82;7.60;;;10.60;74.40;;;;;;5103126;28;20062;-72
2023/11/13 10:48:59;;;;;;;16.35;9.18;;;;;;;;;;5088739;28;20017;-72
2023/11/13 10:51:27;;;;;;;14.50;8.25;;;10.70;79.30;;;;;;5082998;28;20090;-73
2023/11/13 10:53:54;;;;;;;13.60;8.35;;;10.80;69.80;;;;;;5082899;28;20351;-72
2023/11/13 10:56:20;;;;;;;12.27;7.82;;;10.80;76.60;;;;;;5082854;28;20028;-73
2023/11/13 10:58:48;;;;;;;12.30;7.85;;;11.20;79.60;;;;;;5082850;28;20340;-73
2023/11/13 11:01:18;;;;;;;10.88;7.88;;;11.10;79.90;;;;;;5082857;28;20058;-72
2023/11/13 11:03:47;;;;;;;12.32;8.38;;;10.90;66.90;;;;;;5096706;28;20026;-73
2023/11/13 11:06:20;;;;;;;11.07;7.80;;;10.60;71.00;;;;;;5103149;28;20047;-73
2023/11/13 11:08:46;;;;;;;9.98;7.13;;;10.90;76.80;;;;;;5102967;28;20221;-72
2023/11/13 11:11:14;;;;;;;15.23;8.13;;;10.80;73.00;;;;;;5103159;28;20517;-72
2023/11/13 11:13:49;;;;;;;12.25;7.25;;;11.10;66.80;;;;;;5103136;28;20028;-72
2023/11/13 11:16:38;;;;;;;9.95;6.75;;;11.20;67.00;;;;;;5102893;28;20046;-72
2023/11/13 11:19:13;;;;;;;;;;;11.20;67.10;;;;;;5103593;28;20303;-71
2023/11/13 11:21:46;;;;;;;11.25;6.40;;;11.30;78.70;;;;;;5102926;28;19900;-72
2023/11/13 11:24:30;;;;;;;12.55;7.35;;;11.50;66.00;;;;;;5102297;28;20035;-72
2023/11/13 11:26:59;;;;;;;12.57;7.40;;;11.30;78.10;;;;;;5082086;28;20370;-71
2023/11/13 11:29:38;;;;;;;13.15;7.70;;;11.40;78.20;;;;;;5082123;28;20304;-72
2023/11/13 11:32:13;;;;;;;11.65;7.60;;;11.40;70.40;;;;;;5082363;28;20032;-72
2023/11/13 11:34:41;;;;;;;11.20;7.03;;;12.00;77.80;;;;;;5084397;28;20312;-74
2023/11/13 11:37:13;;;;;;;11.82;8.45;;;11.30;66.80;;;;;;5080886;28;20077;-74
2023/11/13 11:39:53;;;;;;;11.95;7.13;;;11.20;78.60;;;;;;5082146;28;20054;-72
2023/11/13 11:42:23;;;;;;;12.25;8.15;;;11.20;79.20;;;;;;5081864;28;20017;-72
2023/11/13 11:44:58;;;;;;;11.52;7.30;;;11.00;79.60;;;;;;5081909;28;20023;-73
2023/11/13 11:47:28;;;;;;;12.38;7.93;;;11.70;80.20;;;;;;5081955;28;20070;-72
2023/11/13 11:49:56;;;;;;;13.93;7.90;;;11.70;80.60;;;;;;5081909;28;20024;-72
2023/11/13 11:52:53;;;;;;;13.43;8.32;;;11.10;67.80;;;;;;5081497;28;20039;-73
2023/11/13 11:55:30;;;;;;;11.40;7.80;;;10.90;81.30;;;;;;5081334;28;20032;-72
2023/11/13 11:57:56;;;;;;;11.75;8.18;;;10.90;81.60;;;;;;5081398;28;20021;-72
2023/11/13 12:00:25;;;;;;;10.20;7.70;;;10.70;69.60;;;;;;5081992;28;20035;-73
2023/11/13 12:02:56;;;;;;;13.07;7.20;;;10.70;69.40;;;;;;5081844;28;20025;-73
2023/11/13 12:05:22;;;;;;;10.63;6.72;;;10.90;75.10;;;;;;5083874;28;20082;-75
2023/11/13 12:07:50;;;;;;;8.63;5.88;;;10.60;70.20;;;;;;5084727;28;20051;-72
2023/11/13 12:10:21;;;;;;;14.00;6.40;;;10.80;83.80;;;;;;5083738;28;20118;-72
2023/11/13 12:12:48;;;;;;;15.50;6.45;;;10.80;70.80;;;;;;5085001;28;20025;-73
2023/11/13 12:15:14;;;;;;;9.50;6.78;;;10.80;83.70;;;;;;5084296;28;20016;-72
2023/11/13 12:17:41;;;;;;;8.20;6.18;;;11.20;83.60;;;;;;5081546;28;20388;-72
2023/11/13 12:20:09;;;;;;;11.27;6.65;;;11.10;70.00;;;;;;5081232;28;20024;-73
2023/11/13 12:22:39;;;;;;;9.02;6.57;;;11.20;82.60;;;;;;5081938;28;20025;-72
2023/11/13 12:25:09;;;;;;;11.00;6.30;;;11.20;82.80;;;;;;5059768;28;20044;-72
2023/11/13 12:27:36;;;;;;;11.20;7.15;;;11.20;83.20;;;;;;5066879;28;20060;-73
2023/11/13 12:30:13;;;;;;;9.45;6.50;;;10.80;70.40;;;;;;5061115;28;20017;-73
2023/11/13 12:32:39;;;;;;;11.27;6.50;;;10.90;84.50;;;;;;5073915;28;20025;-73
2023/11/13 12:35:04;;;;;;;8.23;6.07;;;10.70;84.50;;;;;;5076375;28;20009;-73
2023/11/13 12:37:30;;;;;;;10.07;6.35;;;10.80;77.10;;;;;;5081426;28;20118;-73
2023/11/13 12:40:00;;;;;;;11.40;7.47;;;10.80;85.20;;;;;;5080811;28;20016;-73
2023/11/13 12:42:26;;;;;;;9.40;6.88;;;10.70;85.30;;;;;;5081194;28;20039;-72
2023/11/13 12:44:55;;;;;;;10.13;6.63;;;;;;;;;;5081065;28;20028;-73
2023/11/13 12:47:21;;;;;;;12.97;7.27;;;10.30;76.70;;;;;;5080512;28;20355;-72
2023/11/13 12:49:50;;;;;;;9.13;6.55;;;10.50;73.20;;;;;;5080896;28;20438;-72
2023/11/13 12:52:18;;;;;;;9.18;6.65;;;10.20;86.70;;;;;;5080706;28;20016;-72
2023/11/13 12:54:54;;;;;;;11.30;8.00;;;10.30;86.90;;;;;;5080986;28;20021;-72
2023/11/13 12:57:20;;;;;;;11.52;8.35;;;10.30;86.90;;;;;;5080586;28;20047;-73
2023/11/13 12:59:47;;;;;;;14.38;9.43;;;10.50;86.80;;;;;;5080825;28;20016;-73
2023/11/13 13:02:13;;;;;;;12.27;7.47;;;;;;;;;;5078547;28;20038;-71
2023/11/13 13:04:43;;;;;;;12.50;8.25;;;10.40;86.40;;;;;;5080180;28;20023;-72